createdAt,value
2023-01-09T00:00:05.243Z,102085.15
2023-01-09T00:02:52.943Z,102083.07
2023-01-09T00:05:40.518Z,102082.88
2023-01-09T00:08:28.051Z,102085.00
2023-01-09T00:11:15.678Z,102084.52
2023-01-09T00:14:03.873Z,102077.34
2023-01-09T00:16:51.436Z,102069.56
2023-01-09T00:19:39.031Z,102062.36
2023-01-09T00:22:26.614Z,102059.49
2023-01-09T00:25:14.154Z,102055.94
2023-01-09T00:28:01.666Z,102058.84
2023-01-09T00:30:56.476Z,102065.89
2023-01-09T00:33:55.453Z,102065.04
2023-01-09T00:36:43.018Z,102053.17
2023-01-09T00:39:30.592Z,102041.57
2023-01-09T00:42:20.714Z,102038.77
2023-01-09T00:45:11.215Z,102034.13
2023-01-09T00:48:06.899Z,102033.52
2023-01-09T00:50:55.452Z,102029.79
2023-01-09T00:53:42.999Z,102034.16
2023-01-09T00:56:30.666Z,102030.40
2023-01-09T00:59:18.196Z,102028.70
2023-01-09T01:02:05.897Z,102022.77
2023-01-09T01:05:12.094Z,102018.12
2023-01-09T01:07:59.696Z,102014.95
2023-01-09T01:10:47.641Z,102019.72
2023-01-09T01:13:35.231Z,102022.06
2023-01-09T01:16:22.897Z,102017.25
2023-01-09T01:19:10.447Z,102015.45
2023-01-09T01:21:57.998Z,102005.14
2023-01-09T01:24:45.530Z,101993.55
2023-01-09T01:27:33.017Z,101992.19
2023-01-09T01:30:20.671Z,101985.73
2023-01-09T01:33:08.538Z,101984.73
2023-01-09T01:36:07.223Z,101990.11
2023-01-09T01:38:54.797Z,101989.02
2023-01-09T01:41:42.423Z,101989.47
2023-01-09T01:45:07.353Z,101986.65
2023-01-09T01:48:07.479Z,101988.89
2023-01-09T01:51:00.302Z,101983.29
2023-01-09T01:53:54.028Z,101975.82
2023-01-09T01:56:56.871Z,101968.46
2023-01-09T01:59:50.120Z,101963.09
2023-01-09T02:02:37.836Z,101956.16
2023-01-09T02:05:25.467Z,101949.33
2023-01-09T02:08:13.116Z,101943.30
2023-01-09T02:11:01.001Z,101936.19
2023-01-09T02:13:48.520Z,101931.13
2023-01-09T02:16:59.599Z,101935.06
2023-01-09T02:20:24.299Z,101929.69
2023-01-09T02:23:27.067Z,101927.09
2023-01-09T02:26:14.462Z,101924.11
2023-01-09T02:29:30.113Z,101923.13
2023-01-09T02:32:37.822Z,101918.05
2023-01-09T02:35:37.579Z,101920.03
2023-01-09T02:38:43.244Z,101917.19
2023-01-09T02:41:43.605Z,101915.48
2023-01-09T02:44:32.526Z,101910.39
2023-01-09T02:47:20.687Z,101915.70
2023-01-09T02:50:11.861Z,101911.05
2023-01-09T02:52:59.333Z,101904.94
2023-01-09T02:56:20.255Z,101902.83
2023-01-09T02:59:17.463Z,101900.83
2023-01-09T03:02:34.563Z,101901.20
2023-01-09T03:05:25.847Z,101900.34
2023-01-09T03:08:15.979Z,101897.99
2023-01-09T03:11:06.613Z,101897.04
2023-01-09T03:13:55.736Z,101893.64
2023-01-09T03:16:44.907Z,101890.36
2023-01-09T03:19:32.529Z,101887.35
2023-01-09T03:22:20.425Z,101883.48
2023-01-09T03:25:08.342Z,101883.45
2023-01-09T03:28:03.767Z,101885.74
2023-01-09T03:30:51.318Z,101882.97
2023-01-09T03:33:38.970Z,101881.42
2023-01-09T03:36:26.531Z,101878.45
2023-01-09T03:39:14.022Z,101874.42
2023-01-09T03:42:01.780Z,101871.09
2023-01-09T03:44:50.904Z,101872.52
2023-01-09T03:47:38.449Z,101868.63
2023-01-09T03:50:26.002Z,101866.10
2023-01-09T03:53:13.895Z,101872.77
2023-01-09T03:56:01.443Z,101871.79
2023-01-09T03:58:50.278Z,101867.83
2023-01-09T04:01:37.974Z,101871.36
2023-01-09T04:04:25.580Z,101867.99
2023-01-09T04:07:13.185Z,101863.23
2023-01-09T04:10:00.743Z,101861.99
2023-01-09T04:12:48.265Z,101864.90
2023-01-09T04:15:35.828Z,101861.55
2023-01-09T04:18:23.925Z,101860.58
2023-01-09T04:21:11.545Z,101864.02
2023-01-09T04:23:59.067Z,101869.65
2023-01-09T04:26:46.595Z,101871.37
2023-01-09T04:29:34.150Z,101862.52
2023-01-09T04:32:21.714Z,101864.27
2023-01-09T04:35:09.432Z,101853.63
2023-01-09T04:37:56.971Z,101846.61
2023-01-09T04:40:44.542Z,101847.50
2023-01-09T04:43:32.089Z,101841.67
2023-01-09T04:46:19.615Z,101841.57
2023-01-09T04:49:07.184Z,101840.88
2023-01-09T04:51:54.765Z,101836.09
2023-01-09T04:54:42.388Z,101829.13
2023-01-09T04:57:29.948Z,101832.95
2023-01-09T05:00:17.704Z,101828.33
2023-01-09T05:03:05.294Z,101829.27
2023-01-09T05:05:52.850Z,101826.85
2023-01-09T05:08:40.402Z,101822.02
2023-01-09T05:11:28.510Z,101822.81
2023-01-09T05:14:16.107Z,101825.64
2023-01-09T05:17:03.764Z,101825.86
2023-01-09T05:19:51.356Z,101823.14
2023-01-09T05:22:38.947Z,101825.45
2023-01-09T05:25:26.496Z,101826.23
2023-01-09T05:28:14.013Z,101824.89
2023-01-09T05:31:01.573Z,101818.86
2023-01-09T05:33:49.150Z,101818.19
2023-01-09T05:36:36.688Z,101815.98
2023-01-09T05:39:24.402Z,101821.31
2023-01-09T05:42:11.954Z,101813.42
2023-01-09T05:44:59.561Z,101810.98
2023-01-09T05:47:47.131Z,101808.77
2023-01-09T05:50:34.639Z,101804.13
2023-01-09T05:53:22.133Z,101802.77
2023-01-09T05:56:11.449Z,101804.11
2023-01-09T05:58:59.424Z,101807.98
2023-01-09T06:01:47.034Z,101811.83
2023-01-09T06:04:34.769Z,101810.21
2023-01-09T06:07:23.510Z,101814.39
2023-01-09T06:10:11.977Z,101813.94
2023-01-09T06:12:59.553Z,101810.08
2023-01-09T06:15:47.877Z,101812.73
2023-01-09T06:18:35.534Z,101817.80
2023-01-09T06:21:23.060Z,101818.29
2023-01-09T06:24:10.619Z,101818.89
2023-01-09T06:26:58.203Z,101819.98
2023-01-09T06:29:45.796Z,101817.42
2023-01-09T06:32:33.297Z,101823.35
2023-01-09T06:35:22.296Z,101821.00
2023-01-09T06:38:09.953Z,101824.36
2023-01-09T06:40:57.494Z,101825.19
2023-01-09T06:43:45.165Z,101820.59
2023-01-09T06:46:32.810Z,101824.24
2023-01-09T06:49:23.609Z,101819.70
2023-01-09T06:52:11.152Z,101820.54
2023-01-09T06:54:58.692Z,101814.79
2023-01-09T06:57:46.281Z,101813.95
2023-01-09T07:00:33.898Z,101820.59
2023-01-09T07:03:22.592Z,101822.56
2023-01-09T07:06:10.186Z,101821.29
2023-01-09T07:08:57.825Z,101824.35
2023-01-09T07:11:45.433Z,101817.50
2023-01-09T07:14:32.985Z,101816.62
2023-01-09T07:17:20.544Z,101814.47
2023-01-09T07:20:08.875Z,101810.65
2023-01-09T07:22:57.040Z,101808.63
2023-01-09T07:25:44.541Z,101802.27
2023-01-09T07:28:32.070Z,101801.59
2023-01-09T07:31:19.669Z,101799.70
2023-01-09T07:34:07.204Z,101793.42
2023-01-09T07:36:54.776Z,101790.77
2023-01-09T07:39:42.362Z,101791.10
2023-01-09T07:42:29.958Z,101786.33
2023-01-09T07:45:17.530Z,101792.08
2023-01-09T07:48:05.281Z,101781.35
2023-01-09T07:50:52.823Z,101783.18
2023-01-09T07:53:40.394Z,101781.13
2023-01-09T07:56:27.982Z,101778.90
2023-01-09T07:59:15.580Z,101779.55
2023-01-09T10:10:05.745Z,101688.80
2023-01-09T10:13:23.208Z,101686.04
2023-01-09T10:16:23.043Z,101687.23
2023-01-09T10:19:20.428Z,101693.06
2023-01-09T10:22:22.382Z,101693.87
2023-01-09T10:25:27.436Z,101694.17
2023-01-09T10:28:33.299Z,101685.66
2023-01-09T10:31:36.075Z,101685.36
2023-01-09T10:34:57.113Z,101689.34
2023-01-09T10:37:45.453Z,101682.63
2023-01-09T10:40:39.665Z,101681.64
2023-01-09T10:43:42.217Z,101674.86
2023-01-09T10:46:42.147Z,101671.15
2023-01-09T10:49:29.681Z,101669.61
2023-01-09T10:52:20.603Z,101668.02
2023-01-09T10:55:20.163Z,101669.69
2023-01-09T10:58:16.254Z,101673.65
2023-01-09T11:01:04.641Z,101667.23
2023-01-09T11:03:52.198Z,101669.09
2023-01-09T11:06:47.914Z,101668.54
2023-01-09T11:10:04.673Z,101664.77
2023-01-09T11:12:52.100Z,101662.04
2023-01-09T11:15:39.653Z,101663.95
2023-01-09T11:18:27.127Z,101664.52
2023-01-09T11:21:38.065Z,101665.90
2023-01-09T11:24:28.871Z,101659.77
2023-01-09T11:27:23.407Z,101654.90
2023-01-09T11:30:27.765Z,101652.70
2023-01-09T11:33:16.183Z,101656.50
2023-01-09T11:36:10.694Z,101656.73
2023-01-09T11:38:59.190Z,101652.55
2023-01-09T11:41:48.916Z,101653.34
2023-01-09T11:44:37.002Z,101644.73
2023-01-09T11:47:34.518Z,101636.42
2023-01-09T11:50:27.286Z,101630.18
2023-01-09T11:53:16.116Z,101627.46
2023-01-09T11:56:03.754Z,101629.25
2023-01-09T11:58:51.429Z,101631.17
2023-01-09T12:01:55.701Z,101626.25
2023-01-09T12:04:47.699Z,101623.23
2023-01-09T12:07:53.404Z,101627.77
2023-01-09T12:10:59.496Z,101628.19
2023-01-09T12:13:53.547Z,101622.79
2023-01-09T12:17:08.917Z,101623.00
2023-01-09T12:20:12.525Z,101622.61
2023-01-09T12:23:12.770Z,101628.33
2023-01-09T12:26:33.221Z,101615.27
2023-01-09T12:29:29.753Z,101607.76
2023-01-09T12:32:20.220Z,101609.13
2023-01-09T12:35:17.624Z,101605.36
2023-01-09T12:38:14.339Z,101602.06
2023-01-09T12:41:11.025Z,101599.86
2023-01-09T12:44:09.007Z,101599.20
2023-01-09T12:47:31.929Z,101601.32
2023-01-09T12:50:40.912Z,101599.76
2023-01-09T12:53:34.750Z,101601.80
2023-01-09T12:56:25.247Z,101594.81
2023-01-09T12:59:22.053Z,101591.16
2023-01-09T13:02:28.547Z,101592.09
2023-01-09T13:05:24.740Z,101593.45
2023-01-09T13:08:15.772Z,101591.67
2023-01-09T13:11:19.026Z,101591.80
2023-01-09T13:14:20.336Z,101595.69
2023-01-09T13:17:08.582Z,101601.18
2023-01-09T13:19:56.854Z,101598.11
2023-01-09T13:22:49.928Z,101599.41
2023-01-09T13:25:41.769Z,101599.38
2023-01-09T13:28:53.911Z,101595.10
2023-01-09T13:32:18.926Z,101589.05
2023-01-09T13:35:14.516Z,101588.58
2023-01-09T13:38:01.937Z,101588.23
2023-01-09T13:41:39.726Z,101588.11
2023-01-09T13:44:28.829Z,101591.05
2023-01-09T13:47:21.479Z,101582.21
2023-01-09T13:50:11.816Z,101579.96
2023-01-09T13:53:18.000Z,101579.89
2023-01-09T13:56:06.305Z,101580.17
2023-01-09T13:58:58.656Z,101576.33
2023-01-09T14:01:47.652Z,101571.82
2023-01-09T14:04:42.353Z,101579.34
2023-01-09T14:07:33.904Z,101579.64
2023-01-09T14:10:57.669Z,101584.52
2023-01-09T14:13:45.679Z,101580.65
2023-01-09T14:16:33.331Z,101590.86
2023-01-09T14:19:37.790Z,101587.46
2023-01-09T14:22:30.593Z,101584.58
2023-01-09T14:25:20.146Z,101593.66
2023-01-09T14:28:26.008Z,101593.29
2023-01-09T14:31:32.515Z,101589.38
2023-01-09T14:34:35.992Z,101591.36
2023-01-09T14:37:23.553Z,101584.85
2023-01-09T14:40:23.768Z,101583.65
2023-01-09T14:43:15.588Z,101582.89
2023-01-09T14:46:05.010Z,101577.83
2023-01-09T14:49:30.145Z,101576.72
2023-01-09T14:52:29.404Z,101574.20
2023-01-09T14:55:22.329Z,101567.54
2023-01-09T14:58:19.703Z,101565.99
2023-01-09T15:01:08.269Z,101565.86
2023-01-09T15:03:59.572Z,101559.94
2023-01-09T15:06:47.046Z,101565.20
2023-01-09T15:09:44.428Z,101573.61
2023-01-09T15:12:32.222Z,101577.24
2023-01-09T15:15:20.313Z,101572.14
2023-01-09T15:18:07.921Z,101571.05
2023-01-09T15:20:59.113Z,101569.64
2023-01-09T15:23:46.824Z,101569.15
2023-01-09T15:26:34.266Z,101569.98
2023-01-09T15:29:22.877Z,101577.71
2023-01-09T15:32:17.437Z,101572.89
2023-01-09T15:35:05.118Z,101567.23
2023-01-09T15:37:52.769Z,101568.20
2023-01-09T15:40:40.325Z,101572.86
2023-01-09T15:43:28.523Z,101573.55
2023-01-09T15:46:16.342Z,101575.12
2023-01-09T15:49:03.785Z,101575.25
2023-01-09T15:51:51.176Z,101568.31
2023-01-09T15:54:39.118Z,101562.81
2023-01-09T15:57:26.685Z,101561.27
2023-01-09T19:07:31.499Z,101569.21
2023-01-09T19:10:19.024Z,101565.73
2023-01-09T19:13:06.509Z,101565.73
2023-01-09T19:15:57.522Z,101566.63
2023-01-09T19:18:45.474Z,101563.01
2023-01-09T19:21:32.993Z,101565.14
2023-01-09T19:24:21.238Z,101563.98
2023-01-09T19:27:08.764Z,101564.68
2023-01-09T19:29:56.216Z,101565.70
2023-01-09T19:32:43.767Z,101561.59
2023-01-09T19:35:32.343Z,101564.48
2023-01-09T19:38:22.480Z,101569.82
2023-01-09T19:41:19.899Z,101572.45
2023-01-09T19:44:07.521Z,101571.00
2023-01-09T19:46:55.017Z,101573.55
2023-01-09T19:49:42.436Z,101582.34
2023-01-09T19:52:29.898Z,101581.83
2023-01-09T19:55:17.355Z,101586.95
2023-01-09T19:58:05.259Z,101589.54
2023-01-09T20:00:52.720Z,101588.60
2023-01-09T20:03:41.158Z,101592.66
2023-01-09T20:06:28.725Z,101589.16
2023-01-09T20:09:17.836Z,101593.44
2023-01-09T20:12:05.592Z,101588.73
2023-01-09T20:14:53.109Z,101586.10
2023-01-09T20:17:41.397Z,101586.68
2023-01-09T20:20:28.972Z,101587.50
2023-01-09T20:23:21.358Z,101598.35
2023-01-09T20:26:08.767Z,101600.73
2023-01-09T20:28:56.460Z,101599.17
2023-01-09T20:31:44.160Z,101600.36
2023-01-09T20:34:31.754Z,101602.84
2023-01-09T20:37:19.205Z,101609.43
2023-01-09T20:40:07.010Z,101616.80
2023-01-09T20:42:54.601Z,101618.70
2023-01-09T20:45:42.163Z,101620.96
2023-01-09T20:48:30.034Z,101620.81
2023-01-09T20:51:17.536Z,101628.77
2023-01-09T20:54:05.085Z,101632.22
2023-01-09T20:56:53.644Z,101633.80
2023-01-09T20:59:41.066Z,101636.63
2023-01-09T21:02:28.460Z,101643.61
2023-01-09T21:05:16.051Z,101642.91
2023-01-09T21:08:04.250Z,101639.74
2023-01-09T21:11:00.852Z,101637.96
2023-01-09T21:13:48.333Z,101640.29
2023-01-09T21:16:35.794Z,101643.33
2023-01-09T21:19:23.283Z,101649.14
2023-01-09T21:22:10.776Z,101649.60
2023-01-09T21:24:58.239Z,101647.84
2023-01-09T21:27:50.946Z,101645.23
2023-01-09T21:30:38.242Z,101640.15
2023-01-09T21:33:25.629Z,101634.45
2023-01-09T21:36:13.407Z,101629.83
2023-01-09T21:39:00.836Z,101625.81
2023-01-09T21:42:06.776Z,101623.63
2023-01-09T21:45:12.782Z,101612.36
2023-01-09T21:48:03.328Z,101612.92
2023-01-09T21:50:50.787Z,101606.98
2023-01-09T21:53:38.282Z,101601.70
2023-01-09T21:56:25.677Z,101599.61
2023-01-09T21:59:13.456Z,101603.46
2023-01-09T22:02:00.902Z,101610.50
2023-01-09T22:04:49.179Z,101609.97
2023-01-09T22:07:36.745Z,101611.88
2023-01-09T22:10:24.164Z,101602.90
2023-01-09T22:13:16.182Z,101601.83
2023-01-09T22:16:05.082Z,101594.17
2023-01-09T22:18:55.972Z,101592.67
2023-01-09T22:21:43.459Z,101583.16
2023-01-09T22:24:30.881Z,101583.20
2023-01-09T22:27:18.326Z,101581.34
2023-01-09T22:30:06.372Z,101591.98
2023-01-09T22:32:53.759Z,101594.98
2023-01-09T22:35:41.861Z,101601.38
2023-01-09T22:38:29.262Z,101603.97
2023-01-09T22:41:16.675Z,101602.48
2023-01-09T22:44:04.263Z,101597.17
2023-01-09T22:46:51.715Z,101599.54
2023-01-09T22:49:52.370Z,101601.08
2023-01-09T22:52:40.378Z,101606.36
2023-01-09T22:55:27.817Z,101607.34
2023-01-09T22:58:15.396Z,101612.59
2023-01-09T23:01:03.136Z,101610.66
2023-01-09T23:03:50.576Z,101609.09
2023-01-09T23:06:38.024Z,101615.19
2023-01-09T23:09:26.641Z,101615.27
2023-01-09T23:12:14.015Z,101610.60
2023-01-09T23:15:01.517Z,101616.44
2023-01-09T23:17:48.885Z,101620.08
2023-01-09T23:20:36.336Z,101621.69
2023-01-09T23:23:24.480Z,101623.80
2023-01-09T23:26:11.866Z,101628.14
2023-01-09T23:28:59.309Z,101620.48
2023-01-09T23:31:46.811Z,101624.06
2023-01-09T23:34:34.306Z,101631.81
2023-01-09T23:37:21.737Z,101633.45
2023-01-09T23:40:10.653Z,101634.00
2023-01-09T23:43:10.386Z,101635.76
2023-01-09T23:45:57.880Z,101642.04
2023-01-09T23:48:45.980Z,101641.05
2023-01-09T23:51:34.441Z,101643.98
2023-01-09T23:54:21.875Z,101640.36
2023-01-09T23:57:09.371Z,101638.53
2023-01-09T23:59:56.783Z,101635.73
